SPTN/TCQ METAR and TAF weather

Enter ICAO airport designator
Station Type Date Time Source
SPTN METAR 2020/07/09 19:00 UTC NOAA

SPTN 091900Z 22009KT 200V260 CAVOK 19/12 Q1015 RMK PP000


Station Type Date Time Source
SPTN Decoded METAR 2020/07/09 19:00 UTC NOAA

Tacna, Peru (SPTN) 18-04S 070-18W 469M
Jul 09, 2020 - 03:00 PM EDT / 2020.07.09 1900 UTC
Wind: from the SW (220 degrees) at 10 MPH (9 KT) (direction variable):0
Visibility: greater than 7 mile(s):0
Temperature: 66 F (19 C)
Dew Point: 53 F (12 C)
Relative Humidity: 63%
Pressure (altimeter): 29.97 in. Hg (1015 hPa)
ob: SPTN 091900Z 22009KT 200V260 CAVOK 19/12 Q1015 RMK PP000
cycle: 19

Station Type Date Time Source
SPTN TAF 2020/07/09 12:33 UTC NOAA

TAF TAF SPTN 091320Z 0912/1012 22004KT 9999 BKN030 TX19/0919Z TN12/1010Z
FM091700 22008KT CAVOK
FM100000 24005KT 9999 BKN022

Example: see airport list